Time;durP1;ratioP1;P1;durP2;ratioP2;P2;SDS_P1;SDS_P2;PMS_P1;PMS_P2;Temp;Humidity;BMP_temperature;BMP_pressure;BME280_temperature;BME280_humidity;BME280_pressure;Samples;Min_cycle;Max_cycle;Signal;HPM_P1;HPM_P2
2021/09/07 00:01:13;;;;;;;24.83;12.88;;;;;;;;;;5008001;28;20077;-79
2021/09/07 00:03:40;;;;;;;26.30;13.45;;;;;;;;;;5007682;28;20061;-79
2021/09/07 00:06:08;;;;;;;24.80;13.68;;;;;;;;;;5005021;28;20103;-79
2021/09/07 00:08:35;;;;;;;30.70;13.05;;;;;;;;;;4977732;28;20129;-79
2021/09/07 00:11:02;;;;;;;23.23;12.38;;;;;;;;;;5007531;28;20053;-79
2021/09/07 00:13:30;;;;;;;29.17;13.95;;;;;;;;;;5006613;28;20054;-80
2021/09/07 00:15:57;;;;;;;23.45;13.02;;;;;;;;;;5004068;28;20042;-79
2021/09/07 00:18:24;;;;;;;25.77;12.48;;;;;;;;;;4988445;28;20141;-79
2021/09/07 00:20:51;;;;;;;22.42;12.80;;;;;;;;;;4991491;28;20133;-79
2021/09/07 00:23:18;;;;;;;22.83;12.55;;;;;;;;;;4984883;28;20065;-79
2021/09/07 00:25:46;;;;;;;26.15;12.65;;;;;;;;;;5004911;28;20136;-79
2021/09/07 00:28:13;;;;;;;24.60;12.80;;;;;;;;;;5008199;28;20142;-79
2021/09/07 00:30:41;;;;;;;24.83;12.52;;;;;;;;;;4996269;28;20046;-79
2021/09/07 00:33:08;;;;;;;26.40;12.50;;;;;;;;;;4985088;28;20133;-79
2021/09/07 00:35:36;;;;;;;20.63;11.55;;;;;;;;;;5003668;28;20161;-79
2021/09/07 00:38:03;;;;;;;23.95;12.85;;;;;;;;;;5007691;28;20628;-79
2021/09/07 00:40:30;;;;;;;26.17;13.05;;;;;;;;;;5007249;28;20045;-79
2021/09/07 00:42:57;;;;;;;24.60;13.35;;;;;;;;;;4988243;28;20136;-79
2021/09/07 00:45:24;;;;;;;28.05;12.75;;;;;;;;;;4988720;28;20046;-79
2021/09/07 00:47:52;;;;;;;20.98;11.27;;;;;;;;;;5006950;28;20149;-79
2021/09/07 00:50:19;;;;;;;24.48;13.10;;;;;;;;;;4990477;28;20050;-79
2021/09/07 00:52:48;;;;;;;27.85;12.38;;;;;;;;;;4986813;28;20056;-79
2021/09/07 00:55:15;;;;;;;25.40;12.23;;;;;;;;;;5003543;28;20149;-79
2021/09/07 00:57:44;;;;;;;30.65;12.82;;;;;;;;;;4989767;28;20061;-79
2021/09/07 01:00:12;;;;;;;20.02;11.70;;;;;;;;;;4989953;28;20050;-80
2021/09/07 01:02:39;;;;;;;19.70;10.40;;;;;;;;;;4996402;28;20137;-79
2021/09/07 01:05:07;;;;;;;18.95;10.10;;;;;;;;;;4990462;28;20054;-80
2021/09/07 01:07:35;;;;;;;23.73;11.38;;;;;;;;;;5016091;28;20052;-79
2021/09/07 01:10:04;;;;;;;25.65;10.20;;;;;;;;;;5001263;28;20145;-79
2021/09/07 01:12:31;;;;;;;17.02;9.88;;;;;;;;;;5011504;28;20660;-79
2021/09/07 01:14:59;;;;;;;21.27;9.75;;;;;;;;;;5011197;28;20070;-79
2021/09/07 01:17:26;;;;;;;21.50;12.05;;;;;;;;;;5009790;28;20186;-79
2021/09/07 01:19:55;;;;;;;18.42;10.07;;;;;;;;;;4993846;28;20060;-79
2021/09/07 01:22:25;;;;;;;16.73;9.32;;;;;;;;;;4974168;28;20145;-79
2021/09/07 01:24:52;;;;;;;18.83;9.63;;;;;;;;;;4974307;28;20129;-79
2021/09/07 01:27:20;;;;;;;19.10;9.48;;;;;;;;;;4992782;28;20101;-78
2021/09/07 01:29:49;;;;;;;18.13;9.77;;;;;;;;;;4983786;28;20046;-79
2021/09/07 01:32:18;;;;;;;19.52;9.68;;;;;;;;;;5011792;28;20057;-79
2021/09/07 01:34:46;;;;;;;16.10;8.85;;;;;;;;;;4986888;28;20751;-78
2021/09/07 01:37:14;;;;;;;20.02;10.65;;;;;;;;;;4994524;28;20058;-79
2021/09/07 01:39:43;;;;;;;19.67;10.80;;;;;;;;;;5012152;28;20148;-79
2021/09/07 01:42:11;;;;;;;18.30;10.75;;;;;;;;;;4994116;28;20088;-79
2021/09/07 01:44:43;;;;;;;23.25;10.95;;;;;;;;;;4990013;28;20398;-78
2021/09/07 01:47:11;;;;;;;17.23;9.82;;;;;;;;;;4993769;28;20057;-78
2021/09/07 01:49:39;;;;;;;18.13;10.75;;;;;;;;;;4977281;28;20160;-79
2021/09/07 01:52:11;;;;;;;19.98;10.63;;;;;;;;;;4975764;28;20101;-78
2021/09/07 01:54:45;;;;;;;22.02;10.88;;;;;;;;;;4997107;28;20057;-79
2021/09/07 01:57:13;;;;;;;20.33;11.55;;;;;;;;;;4996058;28;20073;-78
2021/09/07 01:59:40;;;;;;;19.92;10.77;;;;;;;;;;4992263;28;20180;-79
2021/09/07 02:02:07;;;;;;;23.75;12.60;;;;;;;;;;5009303;28;20133;-79
2021/09/07 02:04:34;;;;;;;24.00;11.65;;;;;;;;;;5007289;28;20041;-79
2021/09/07 02:07:02;;;;;;;25.70;12.52;;;;;;;;;;4990466;28;20132;-78
2021/09/07 02:09:29;;;;;;;24.45;12.50;;;;;;;;;;4972956;28;20054;-78
2021/09/07 02:11:56;;;;;;;20.25;11.95;;;;;;;;;;4992000;28;20060;-79
2021/09/07 02:14:24;;;;;;;27.27;13.63;;;;;;;;;;5008626;28;20559;-79
2021/09/07 02:16:51;;;;;;;29.10;15.23;;;;;;;;;;5000780;28;20142;-79
2021/09/07 02:19:18;;;;;;;23.38;13.30;;;;;;;;;;4991066;28;20104;-79
2021/09/07 02:21:45;;;;;;;23.30;12.75;;;;;;;;;;5009317;28;20061;-79
2021/09/07 02:24:14;;;;;;;25.35;13.02;;;;;;;;;;4991835;28;20046;-79
2021/09/07 02:26:41;;;;;;;20.90;12.60;;;;;;;;;;4983646;28;20050;-78
2021/09/07 02:29:09;;;;;;;26.77;14.25;;;;;;;;;;4974301;28;20386;-79
2021/09/07 02:31:36;;;;;;;24.27;13.73;;;;;;;;;;5010433;28;20049;-79
2021/09/07 02:34:03;;;;;;;23.70;12.80;;;;;;;;;;5005222;28;20049;-79
2021/09/07 02:36:31;;;;;;;26.55;13.38;;;;;;;;;;4996465;28;20057;-79
2021/09/07 02:38:58;;;;;;;24.83;13.00;;;;;;;;;;5001089;28;20046;-79
2021/09/07 02:41:25;;;;;;;23.23;12.63;;;;;;;;;;4972536;28;20137;-79
2021/09/07 02:43:53;;;;;;;30.80;16.52;;;;;;;;;;4993318;28;20465;-79
2021/09/07 02:46:20;;;;;;;30.70;14.68;;;;;;;;;;5001982;28;20157;-79
2021/09/07 02:48:47;;;;;;;34.97;15.50;;;;;;;;;;4973735;28;20046;-79
2021/09/07 02:51:14;;;;;;;31.98;16.20;;;;;;;;;;4972848;28;20057;-80
2021/09/07 02:53:41;;;;;;;27.13;15.43;;;;;;;;;;5004647;28;20137;-79
2021/09/07 02:56:13;;;;;;;31.77;17.20;;;;;;;;;;5009091;28;20479;-79
2021/09/07 02:58:40;;;;;;;30.83;16.80;;;;;;;;;;5008827;28;20789;-79
2021/09/07 03:01:07;;;;;;;30.98;15.82;;;;;;;;;;4995344;28;20050;-79
2021/09/07 03:03:36;;;;;;;35.05;17.50;;;;;;;;;;4974036;28;20046;-79
2021/09/07 03:06:04;;;;;;;36.67;17.77;;;;;;;;;;5008299;28;20056;-79
2021/09/07 03:08:34;;;;;;;36.10;17.92;;;;;;;;;;5004130;28;20137;-79
2021/09/07 03:11:01;;;;;;;38.35;17.45;;;;;;;;;;5000722;28;20153;-79
2021/09/07 03:13:28;;;;;;;38.50;18.15;;;;;;;;;;4988800;28;20142;-79
2021/09/07 03:15:56;;;;;;;33.60;16.83;;;;;;;;;;4972583;28;20050;-79
2021/09/07 03:18:24;;;;;;;34.55;16.90;;;;;;;;;;4989890;28;20068;-79
2021/09/07 03:20:51;;;;;;;33.60;18.17;;;;;;;;;;5005643;28;20045;-79
2021/09/07 03:23:18;;;;;;;33.67;19.55;;;;;;;;;;5005637;28;20052;-79
2021/09/07 03:25:45;;;;;;;35.53;18.90;;;;;;;;;;4968907;28;20078;-79
2021/09/07 03:28:12;;;;;;;38.38;18.90;;;;;;;;;;4986603;28;20090;-79
2021/09/07 03:30:40;;;;;;;37.65;18.83;;;;;;;;;;4987048;28;20480;-79
2021/09/07 03:33:07;;;;;;;34.08;18.02;;;;;;;;;;5005518;28;20133;-79
2021/09/07 03:35:34;;;;;;;34.90;18.90;;;;;;;;;;5002033;28;20145;-78
2021/09/07 03:38:02;;;;;;;34.88;19.25;;;;;;;;;;4999486;28;20081;-78
2021/09/07 03:40:29;;;;;;;34.72;19.17;;;;;;;;;;5007017;28;20148;-78
2021/09/07 03:42:57;;;;;;;41.33;19.33;;;;;;;;;;4988939;28;20129;-79
2021/09/07 03:45:24;;;;;;;46.53;19.20;;;;;;;;;;4980345;28;20788;-80
2021/09/07 03:47:52;;;;;;;37.47;18.80;;;;;;;;;;5015350;28;20132;-78
2021/09/07 03:50:19;;;;;;;39.70;18.27;;;;;;;;;;5016780;28;20133;-78
2021/09/07 03:52:47;;;;;;;32.70;18.83;;;;;;;;;;4991427;28;20088;-79
2021/09/07 03:55:14;;;;;;;40.15;19.85;;;;;;;;;;4996947;28;20078;-78
2021/09/07 03:57:42;;;;;;;31.95;18.70;;;;;;;;;;4983714;28;20089;-79
2021/09/07 04:00:10;;;;;;;40.90;19.88;;;;;;;;;;4996367;28;20058;-78
2021/09/07 04:02:38;;;;;;;38.13;19.85;;;;;;;;;;4998567;28;20053;-78
2021/09/07 04:05:06;;;;;;;43.38;19.58;;;;;;;;;;5010689;28;20065;-77
2021/09/07 04:07:35;;;;;;;36.10;19.13;;;;;;;;;;4989605;28;20511;-78
2021/09/07 04:10:03;;;;;;;47.85;20.63;;;;;;;;;;4971376;28;20766;-78
2021/09/07 04:12:31;;;;;;;36.92;18.80;;;;;;;;;;5004680;28;20644;-78
2021/09/07 04:14:58;;;;;;;46.50;19.85;;;;;;;;;;4989773;28;20096;-78
2021/09/07 04:17:25;;;;;;;55.15;20.73;;;;;;;;;;4987696;28;20093;-77
2021/09/07 04:19:52;;;;;;;45.47;20.65;;;;;;;;;;4991109;28;20054;-78
2021/09/07 04:22:20;;;;;;;41.20;20.73;;;;;;;;;;4988787;28;20149;-79
2021/09/07 04:24:47;;;;;;;40.40;20.88;;;;;;;;;;4987858;28;20149;-78
2021/09/07 04:27:14;;;;;;;37.55;19.35;;;;;;;;;;5005818;28;20129;-78
2021/09/07 04:29:41;;;;;;;41.97;19.15;;;;;;;;;;4995877;28;20074;-78
2021/09/07 04:32:08;;;;;;;40.45;19.05;;;;;;;;;;4993123;28;20165;-78
2021/09/07 04:34:35;;;;;;;40.25;17.90;;;;;;;;;;4998374;28;20478;-77
2021/09/07 04:37:02;;;;;;;39.88;19.30;;;;;;;;;;5004487;28;20130;-77
2021/09/07 04:39:30;;;;;;;42.90;18.38;;;;;;;;;;5006168;28;20797;-78
2021/09/07 04:41:57;;;;;;;35.92;18.88;;;;;;;;;;5008826;28;20081;-78
2021/09/07 04:44:24;;;;;;;41.85;19.80;;;;;;;;;;5011221;28;20045;-78
2021/09/07 04:46:51;;;;;;;40.53;20.10;;;;;;;;;;5001920;28;20137;-79
2021/09/07 04:49:18;;;;;;;35.05;18.98;;;;;;;;;;4979617;28;20056;-78
2021/09/07 04:51:46;;;;;;;38.85;19.80;;;;;;;;;;5007044;28;20137;-79
2021/09/07 04:54:13;;;;;;;45.35;18.40;;;;;;;;;;5004348;28;20403;-79
2021/09/07 04:56:40;;;;;;;39.50;18.50;;;;;;;;;;5002379;28;20053;-78
2021/09/07 04:59:07;;;;;;;40.53;18.38;;;;;;;;;;4989203;28;20542;-76
2021/09/07 05:01:34;;;;;;;36.42;17.42;;;;;;;;;;5004182;28;20157;-77
2021/09/07 05:04:02;;;;;;;34.05;17.48;;;;;;;;;;4993056;28;20659;-77
2021/09/07 05:06:29;;;;;;;36.97;17.92;;;;;;;;;;5009112;28;20085;-77
2021/09/07 05:08:56;;;;;;;32.97;16.15;;;;;;;;;;5016650;28;20570;-78
2021/09/07 05:11:23;;;;;;;33.67;16.70;;;;;;;;;;5010963;28;20108;-80
2021/09/07 05:13:50;;;;;;;39.50;19.70;;;;;;;;;;4999795;28;20506;-80
2021/09/07 05:16:17;;;;;;;36.63;17.40;;;;;;;;;;5019635;28;20460;-79
2021/09/07 05:18:45;;;;;;;52.03;21.77;;;;;;;;;;5014661;28;20774;-80
2021/09/07 05:21:12;;;;;;;56.92;21.50;;;;;;;;;;5022370;28;20156;-80
2021/09/07 05:23:39;;;;;;;66.82;24.15;;;;;;;;;;5031252;28;20168;-81
2021/09/07 05:26:07;;;;;;;64.40;24.15;;;;;;;;;;5031325;28;20088;-82
2021/09/07 05:28:34;;;;;;;63.88;25.00;;;;;;;;;;5018033;28;20167;-80
2021/09/07 05:31:13;;;;;;;61.05;27.90;;;;;;;;;;5012353;28;20581;-79
2021/09/07 05:33:41;;;;;;;66.30;26.63;;;;;;;;;;5006666;28;20078;-80
2021/09/07 05:36:09;;;;;;;60.97;26.38;;;;;;;;;;5017415;28;20085;-79
2021/09/07 05:38:36;;;;;;;71.75;26.67;;;;;;;;;;5023309;22;20086;-81
2021/09/07 05:41:03;;;;;;;77.22;29.50;;;;;;;;;;5048804;28;20076;-80
2021/09/07 05:43:31;;;;;;;76.25;29.10;;;;;;;;;;5035580;28;21926;-80
2021/09/07 05:45:58;;;;;;;77.85;28.77;;;;;;;;;;5052618;28;20114;-80
2021/09/07 05:48:26;;;;;;;67.53;28.80;;;;;;;;;;5034794;28;20575;-80
2021/09/07 05:50:53;;;;;;;113.90;29.45;;;;;;;;;;5052244;28;20500;-79
2021/09/07 05:53:21;;;;;;;71.93;28.85;;;;;;;;;;5050187;28;20053;-80
2021/09/07 05:55:48;;;;;;;132.85;31.58;;;;;;;;;;5031096;28;20497;-81
2021/09/07 05:58:15;;;;;;;81.97;30.23;;;;;;;;;;5025445;28;20088;-79
2021/09/07 06:00:42;;;;;;;69.03;29.08;;;;;;;;;;5012445;28;20613;-79
2021/09/07 06:03:09;;;;;;;93.72;29.88;;;;;;;;;;5032457;28;20107;-79
2021/09/07 06:05:37;;;;;;;68.10;28.08;;;;;;;;;;5032981;28;20080;-80
2021/09/07 06:08:04;;;;;;;154.15;30.90;;;;;;;;;;5027847;28;20489;-80
2021/09/07 06:10:31;;;;;;;77.18;30.88;;;;;;;;;;5022257;28;20099;-80
2021/09/07 06:13:01;;;;;;;100.53;31.60;;;;;;;;;;5031831;28;20565;-80
2021/09/07 06:15:28;;;;;;;76.88;30.65;;;;;;;;;;5034585;28;20103;-79
2021/09/07 06:17:55;;;;;;;63.25;29.60;;;;;;;;;;5051821;28;20454;-79
2021/09/07 06:20:23;;;;;;;85.72;33.00;;;;;;;;;;5028968;28;20091;-79
2021/09/07 06:22:52;;;;;;;78.65;29.92;;;;;;;;;;5046319;28;20128;-80
2021/09/07 06:25:19;;;;;;;78.88;30.17;;;;;;;;;;5033550;28;20167;-80
2021/09/07 06:27:46;;;;;;;72.25;30.50;;;;;;;;;;5052717;28;20057;-80
2021/09/07 06:30:14;;;;;;;137.93;33.72;;;;;;;;;;5034567;28;20757;-80
2021/09/07 06:32:41;;;;;;;74.13;32.50;;;;;;;;;;5033532;28;20053;-79
2021/09/07 06:35:09;;;;;;;115.82;32.85;;;;;;;;;;5052141;28;20140;-80
2021/09/07 06:37:37;;;;;;;79.93;31.65;;;;;;;;;;5051405;28;20086;-80
2021/09/07 06:40:05;;;;;;;81.63;31.00;;;;;;;;;;5034138;28;20132;-79
2021/09/07 06:42:34;;;;;;;83.65;30.98;;;;;;;;;;5021424;28;20056;-80
2021/09/07 06:45:02;;;;;;;79.90;30.83;;;;;;;;;;5051986;28;20123;-80
2021/09/07 06:47:29;;;;;;;95.07;32.20;;;;;;;;;;5034230;28;20692;-80
2021/09/07 06:49:56;;;;;;;76.53;30.75;;;;;;;;;;5033905;28;20098;-80
2021/09/07 06:52:24;;;;;;;89.75;34.38;;;;;;;;;;5052144;28;20124;-80
2021/09/07 06:54:51;;;;;;;68.50;30.92;;;;;;;;;;5033899;28;20124;-80
2021/09/07 06:57:18;;;;;;;78.93;33.08;;;;;;;;;;5034428;28;20461;-80
2021/09/07 06:59:45;;;;;;;76.20;32.53;;;;;;;;;;5052284;28;20135;-80
2021/09/07 07:02:12;;;;;;;87.40;32.53;;;;;;;;;;5034019;28;20076;-80
2021/09/07 07:04:40;;;;;;;78.97;34.70;;;;;;;;;;5050917;28;20053;-80
2021/09/07 07:07:07;;;;;;;83.10;34.25;;;;;;;;;;5052263;28;20455;-79
2021/09/07 07:09:34;;;;;;;84.07;32.33;;;;;;;;;;5043162;28;20044;-80
2021/09/07 07:12:01;;;;;;;82.25;31.05;;;;;;;;;;5051021;28;20085;-80
2021/09/07 07:14:29;;;;;;;76.93;31.77;;;;;;;;;;5051826;28;20099;-80
2021/09/07 07:16:56;;;;;;;79.45;33.60;;;;;;;;;;5034038;28;20057;-80
2021/09/07 07:19:23;;;;;;;75.03;30.95;;;;;;;;;;5033569;28;20076;-80
2021/09/07 07:21:50;;;;;;;75.35;31.35;;;;;;;;;;5033657;28;20077;-80
2021/09/07 07:24:18;;;;;;;77.65;31.52;;;;;;;;;;5034012;28;20088;-80
2021/09/07 07:26:58;;;;;;;71.75;31.52;;;;;;;;;;5051400;28;20045;-80
2021/09/07 07:29:25;;;;;;;73.05;32.33;;;;;;;;;;5033620;28;20740;-80
2021/09/07 07:31:52;;;;;;;76.65;31.92;;;;;;;;;;5031159;28;20099;-80
2021/09/07 07:34:20;;;;;;;84.90;34.17;;;;;;;;;;5031429;28;20124;-80
2021/09/07 07:36:57;;;;;;;79.68;32.75;;;;;;;;;;5030170;28;20136;-80
2021/09/07 07:39:24;;;;;;;84.90;33.72;;;;;;;;;;5030310;28;20144;-80
2021/09/07 07:41:51;;;;;;;79.22;33.45;;;;;;;;;;5041420;28;20049;-80
2021/09/07 07:44:19;;;;;;;85.50;34.25;;;;;;;;;;5014472;28;20095;-80
2021/09/07 07:46:46;;;;;;;76.70;32.95;;;;;;;;;;5031471;28;20073;-80
2021/09/07 07:49:13;;;;;;;67.72;29.48;;;;;;;;;;5025118;28;20140;-81
2021/09/07 07:51:40;;;;;;;72.72;31.85;;;;;;;;;;5051214;28;20076;-80
2021/09/07 07:54:09;;;;;;;65.75;29.13;;;;;;;;;;5032736;28;20482;-80
2021/09/07 07:56:38;;;;;;;71.15;30.88;;;;;;;;;;5033621;28;20085;-80
2021/09/07 07:59:05;;;;;;;68.57;27.55;;;;;;;;;;5032335;28;20049;-81
2021/09/07 08:01:34;;;;;;;60.42;26.27;;;;;;;;;;5047561;28;20149;-81
2021/09/07 08:04:02;;;;;;;57.17;25.90;;;;;;;;;;5031469;28;20053;-81
2021/09/07 08:06:29;;;;;;;50.50;22.38;;;;;;;;;;5051093;28;20140;-81
2021/09/07 08:08:56;;;;;;;45.17;22.33;;;;;;;;;;5051402;28;20084;-81
2021/09/07 08:11:23;;;;;;;44.25;20.95;;;;;;;;;;5032886;28;20072;-81
2021/09/07 08:13:51;;;;;;;37.92;19.98;;;;;;;;;;5033133;28;20103;-81
2021/09/07 08:16:20;;;;;;;43.72;19.00;;;;;;;;;;5032624;28;20119;-82
2021/09/07 08:18:50;;;;;;;32.13;16.95;;;;;;;;;;5055153;28;20061;-82
2021/09/07 08:21:17;;;;;;;37.40;18.08;;;;;;;;;;5037454;28;20132;-82
2021/09/07 08:23:44;;;;;;;39.83;18.17;;;;;;;;;;5054811;28;20055;-82
2021/09/07 08:26:11;;;;;;;37.15;15.93;;;;;;;;;;5037349;28;20133;-81
2021/09/07 08:28:39;;;;;;;28.67;15.85;;;;;;;;;;5055119;28;20098;-81
2021/09/07 08:31:06;;;;;;;36.17;17.23;;;;;;;;;;5055392;28;20049;-82
2021/09/07 08:33:33;;;;;;;29.90;14.32;;;;;;;;;;5054925;28;20446;-81
2021/09/07 08:36:01;;;;;;;30.25;14.65;;;;;;;;;;5054765;28;20084;-81
2021/09/07 08:38:29;;;;;;;23.58;13.98;;;;;;;;;;5036121;28;20080;-82
2021/09/07 08:40:58;;;;;;;27.08;13.45;;;;;;;;;;5048772;28;20052;-82
2021/09/07 08:43:25;;;;;;;28.45;13.30;;;;;;;;;;5034495;28;20077;-81
2021/09/07 08:45:56;;;;;;;33.45;13.30;;;;;;;;;;5036504;28;20329;-81
2021/09/07 08:48:26;;;;;;;28.98;13.90;;;;;;;;;;5054680;28;20087;-81
2021/09/07 08:50:55;;;;;;;25.92;13.05;;;;;;;;;;5036507;28;20514;-81
2021/09/07 08:53:29;;;;;;;38.80;14.30;;;;;;;;;;5037817;28;20051;-82
2021/09/07 08:55:59;;;;;;;26.80;12.52;;;;;;;;;;5036429;28;20092;-81
2021/09/07 08:58:26;;;;;;;25.35;12.40;;;;;;;;;;5036761;28;20081;-81
2021/09/07 09:00:53;;;;;;;26.17;11.68;;;;;;;;;;5054870;28;20049;-81
2021/09/07 09:03:21;;;;;;;22.38;10.70;;;;;;;;;;5054081;28;20060;-82
2021/09/07 09:05:50;;;;;;;20.58;11.63;;;;;;;;;;5036328;28;20107;-82
2021/09/07 09:08:19;;;;;;;22.77;10.48;;;;;;;;;;5031463;28;20046;-82
2021/09/07 09:10:47;;;;;;;28.67;12.65;;;;;;;;;;5031924;28;20073;-82
2021/09/07 09:13:15;;;;;;;25.73;10.75;;;;;;;;;;5033125;28;20770;-81
2021/09/07 09:16:01;;;;;;;18.80;10.85;;;;;;;;;;5033322;28;20125;-81
2021/09/07 09:18:36;;;;;;;18.63;10.95;;;;;;;;;;5033113;28;20121;-81
2021/09/07 09:21:22;;;;;;;20.47;10.17;;;;;;;;;;5037001;28;20084;-81
2021/09/07 09:24:08;;;;;;;16.08;10.13;;;;;;;;;;5036433;28;20072;-82
2021/09/07 09:26:54;;;;;;;24.63;10.52;;;;;;;;;;5053899;28;20136;-82
2021/09/07 09:29:23;;;;;;;20.08;9.73;;;;;;;;;;5053608;28;20124;-81
2021/09/07 09:31:54;;;;;;;27.00;10.57;;;;;;;;;;5053721;28;20048;-81
2021/09/07 09:34:22;;;;;;;21.80;10.68;;;;;;;;;;5053846;28;20085;-81
2021/09/07 09:36:56;;;;;;;18.65;9.80;;;;;;;;;;5053532;28;20048;-82
2021/09/07 09:39:34;;;;;;;18.60;10.27;;;;;;;;;;5035812;28;20049;-82
2021/09/07 09:42:01;;;;;;;16.55;8.57;;;;;;;;;;5053392;28;20453;-82
2021/09/07 09:44:29;;;;;;;26.15;9.98;;;;;;;;;;5053306;28;20596;-82
2021/09/07 09:46:56;;;;;;;19.05;8.82;;;;;;;;;;5053293;28;20128;-81
2021/09/07 09:49:26;;;;;;;21.90;9.60;;;;;;;;;;5053168;28;20049;-82
2021/09/07 09:51:58;;;;;;;21.00;9.88;;;;;;;;;;5025394;28;20130;-82
2021/09/07 09:54:26;;;;;;;22.73;10.73;;;;;;;;;;5016137;28;20128;-82
2021/09/07 09:56:58;;;;;;;18.35;8.73;;;;;;;;;;5034388;28;20053;-82
2021/09/07 09:59:28;;;;;;;16.35;9.05;;;;;;;;;;5035659;28;20080;-81
2021/09/07 10:01:56;;;;;;;19.45;9.32;;;;;;;;;;5035467;28;20176;-81
2021/09/07 10:04:30;;;;;;;21.27;9.48;;;;;;;;;;5053006;28;20060;-82
2021/09/07 10:06:58;;;;;;;17.23;8.60;;;;;;;;;;5035294;28;20087;-81
2021/09/07 10:09:27;;;;;;;17.20;9.18;;;;;;;;;;5034605;28;20080;-81
2021/09/07 10:12:09;;;;;;;20.00;8.70;;;;;;;;;;5051425;28;20088;-81
2021/09/07 10:14:41;;;;;;;18.00;9.20;;;;;;;;;;5052621;28;20480;-82
2021/09/07 10:20:26;;;;;;;19.88;9.10;;;;;;;;;;5052873;28;20057;-82
2021/09/07 10:23:15;;;;;;;15.75;8.75;;;;;;;;;;5051673;28;20072;-81
2021/09/07 10:26:01;;;;;;;19.30;7.15;;;;;;;;;;5035250;28;20239;-82
2021/09/07 10:28:40;;;;;;;14.18;7.82;;;;;;;;;;5034684;28;20453;-82
2021/09/07 10:31:07;;;;;;;12.82;8.13;;;;;;;;;;5034891;28;20132;-81
2021/09/07 10:33:45;;;;;;;17.65;7.68;;;;;;;;;;5034215;28;20048;-83
2021/09/07 10:36:17;;;;;;;18.58;8.80;;;;;;;;;;5052834;28;20151;-82
2021/09/07 10:38:45;;;;;;;19.33;8.25;;;;;;;;;;5051004;28;20136;-81
2021/09/07 10:41:31;;;;;;;14.95;7.43;;;;;;;;;;5050619;28;20127;-82
2021/09/07 10:44:02;;;;;;;19.45;6.85;;;;;;;;;;5034563;28;20080;-82
2021/09/07 10:46:47;;;;;;;13.45;7.93;;;;;;;;;;5052815;28;20049;-82
2021/09/07 10:49:15;;;;;;;16.95;7.95;;;;;;;;;;5052426;28;20132;-82
2021/09/07 10:52:01;;;;;;;11.70;6.95;;;;;;;;;;5052576;28;20075;-82
2021/09/07 10:54:28;;;;;;;17.05;6.97;;;;;;;;;;5051867;28;20051;-81
2021/09/07 10:56:59;;;;;;;15.70;7.65;;;;;;;;;;5052455;28;20141;-82
2021/09/07 10:59:44;;;;;;;12.30;7.18;;;;;;;;;;5052285;28;20068;-82
2021/09/07 11:02:30;;;;;;;16.33;7.70;;;;;;;;;;5052095;28;20124;-82
2021/09/07 11:05:09;;;;;;;20.10;7.45;;;;;;;;;;5052326;28;20048;-81
2021/09/07 11:07:40;;;;;;;13.02;7.57;;;;;;;;;;5052196;28;20091;-82
2021/09/07 11:10:32;;;;;;;16.73;8.07;;;;;;;;;;5044156;28;20045;-82
2021/09/07 11:13:03;;;;;;;22.98;8.27;;;;;;;;;;5033568;28;20060;-81
2021/09/07 11:15:34;;;;;;;18.40;7.20;;;;;;;;;;5033942;28;20049;-82
2021/09/07 11:18:02;;;;;;;15.77;7.28;;;;;;;;;;5033829;28;20045;-82
2021/09/07 11:20:33;;;;;;;26.13;8.90;;;;;;;;;;5049930;28;20049;-82
2021/09/07 11:23:19;;;;;;;19.05;7.90;;;;;;;;;;5031018;28;20095;-81
2021/09/07 11:25:50;;;;;;;21.02;7.43;;;;;;;;;;5051882;28;20139;-82
2021/09/07 11:28:18;;;;;;;12.63;6.57;;;;;;;;;;5051586;28;20072;-82
2021/09/07 11:30:51;;;;;;;12.50;6.90;;;;;;;;;;5051872;28;20041;-82
2021/09/07 11:33:19;;;;;;;13.85;7.10;;;;;;;;;;5033595;28;20059;-82
2021/09/07 11:35:50;;;;;;;18.25;6.97;;;;;;;;;;5051921;28;20140;-82
2021/09/07 11:38:19;;;;;;;15.10;7.57;;;;;;;;;;5051164;28;20140;-81
2021/09/07 11:40:54;;;;;;;14.95;7.55;;;;;;;;;;5051494;28;20072;-82
2021/09/07 11:43:21;;;;;;;;;;;;;;;;;;5033925;28;20143;-82
2021/09/07 11:45:48;;;;;;;26.63;8.57;;;;;;;;;;5051725;28;19966;-81
2021/09/07 11:48:32;;;;;;;13.02;6.78;;;;;;;;;;5033669;28;20044;-82
2021/09/07 11:50:59;;;;;;;14.25;7.00;;;;;;;;;;5034266;28;20052;-81
2021/09/07 11:53:26;;;;;;;14.45;6.75;;;;;;;;;;5029710;28;20145;-81
2021/09/07 11:55:54;;;;;;;13.93;6.38;;;;;;;;;;5030681;28;20136;-81
2021/09/07 11:58:39;;;;;;;26.67;7.07;;;;;;;;;;5030319;28;20073;-81
2021/09/07 12:01:06;;;;;;;15.68;7.38;;;;;;;;;;5030402;28;20061;-81
2021/09/07 12:03:41;;;;;;;17.27;7.47;;;;;;;;;;5046108;28;20143;-82
2021/09/07 12:06:09;;;;;;;16.02;6.53;;;;;;;;;;5051442;28;20059;-82
2021/09/07 12:08:39;;;;;;;9.90;5.93;;;;;;;;;;5043355;28;20045;-82
2021/09/07 12:11:10;;;;;;;11.27;6.88;;;;;;;;;;5022305;28;20064;-82
2021/09/07 12:13:38;;;;;;;19.10;6.93;;;;;;;;;;5029943;28;20053;-82
2021/09/07 12:16:06;;;;;;;19.70;6.55;;;;;;;;;;5030743;28;20084;-82
2021/09/07 12:18:35;;;;;;;16.23;5.95;;;;;;;;;;5028895;28;20122;-82
2021/09/07 12:21:05;;;;;;;15.88;6.78;;;;;;;;;;5048304;28;20060;-82
2021/09/07 12:23:36;;;;;;;16.67;6.35;;;;;;;;;;5032696;28;20076;-82
2021/09/07 12:26:04;;;;;;;11.93;6.30;;;;;;;;;;5033555;28;20099;-82
2021/09/07 12:28:31;;;;;;;13.25;6.60;;;;;;;;;;5033095;28;20045;-81
2021/09/07 12:31:21;;;;;;;11.35;6.18;;;;;;;;;;5050727;28;20111;-82
2021/09/07 12:33:51;;;;;;;15.98;6.60;;;;;;;;;;5033024;28;20055;-82
2021/09/07 12:36:22;;;;;;;17.05;6.18;;;;;;;;;;5050552;28;20135;-82
2021/09/07 12:38:50;;;;;;;9.80;6.43;;;;;;;;;;5031617;28;20084;-82
2021/09/07 12:41:20;;;;;;;13.93;6.63;;;;;;;;;;5049147;28;20088;-82
2021/09/07 12:43:49;;;;;;;14.70;6.38;;;;;;;;;;5050234;28;20095;-82
2021/09/07 12:46:18;;;;;;;11.52;5.80;;;;;;;;;;5050191;28;20105;-82
2021/09/07 12:48:47;;;;;;;9.25;6.05;;;;;;;;;;5032421;28;20071;-82
2021/09/07 12:51:15;;;;;;;14.80;5.93;;;;;;;;;;5051248;28;20140;-82
2021/09/07 12:53:46;;;;;;;11.00;6.30;;;;;;;;;;5032347;28;20080;-82
2021/09/07 12:56:32;;;;;;;16.17;6.28;;;;;;;;;;5032546;28;20076;-81
2021/09/07 12:59:02;;;;;;;14.98;6.32;;;;;;;;;;5050331;28;20049;-83
2021/09/07 13:01:30;;;;;;;12.65;6.05;;;;;;;;;;5032886;28;20095;-82
2021/09/07 13:03:58;;;;;;;10.32;6.15;;;;;;;;;;5053445;28;20102;-81
2021/09/07 13:06:28;;;;;;;9.98;5.65;;;;;;;;;;5036039;28;20975;-82
2021/09/07 13:09:06;;;;;;;12.20;6.00;;;;;;;;;;5034922;28;20133;-82
2021/09/07 13:11:34;;;;;;;13.48;6.60;;;;;;;;;;5041418;28;20457;-82
2021/09/07 13:14:02;;;;;;;12.90;6.68;;;;;;;;;;5053959;28;20120;-82
2021/09/07 13:16:30;;;;;;;10.98;6.40;;;;;;;;;;5053500;28;20089;-82
2021/09/07 13:18:58;;;;;;;14.68;6.30;;;;;;;;;;5035656;28;20049;-82
2021/09/07 13:21:32;;;;;;;11.77;6.28;;;;;;;;;;5053351;28;20084;-82
2021/09/07 13:24:01;;;;;;;18.50;6.43;;;;;;;;;;5053174;28;20049;-82
2021/09/07 13:26:28;;;;;;;10.27;5.85;;;;;;;;;;5053228;28;20084;-82
2021/09/07 13:28:55;;;;;;;10.90;6.35;;;;;;;;;;5053541;28;20589;-83
2021/09/07 13:31:27;;;;;;;10.90;6.43;;;;;;;;;;5053550;28;20482;-82
2021/09/07 13:33:54;;;;;;;9.10;5.93;;;;;;;;;;5035720;28;20125;-82
2021/09/07 13:36:22;;;;;;;13.50;6.72;;;;;;;;;;5053104;28;20106;-82
2021/09/07 13:38:49;;;;;;;12.40;6.70;;;;;;;;;;5035711;28;20049;-82
2021/09/07 13:41:16;;;;;;;9.43;5.90;;;;;;;;;;5054031;28;20049;-83
2021/09/07 13:43:43;;;;;;;11.70;5.70;;;;;;;;;;5035734;28;20087;-82
2021/09/07 13:46:11;;;;;;;14.13;6.13;;;;;;;;;;5035537;28;20060;-82
2021/09/07 13:48:39;;;;;;;11.90;6.30;;;;;;;;;;5036333;28;20128;-82
2021/09/07 13:51:06;;;;;;;17.65;6.50;;;;;;;;;;5053496;28;20533;-82
2021/09/07 13:53:48;;;;;;;10.68;6.45;;;;;;;;;;5037772;28;20103;-82
2021/09/07 13:56:15;;;;;;;11.07;5.90;;;;;;;;;;5035560;28;20556;-82
2021/09/07 13:58:42;;;;;;;12.73;6.13;;;;;;;;;;5053711;28;20184;-83
2021/09/07 14:01:09;;;;;;;14.38;5.57;;;;;;;;;;5035588;28;20416;-82
2021/09/07 14:03:37;;;;;;;15.75;6.03;;;;;;;;;;5035261;28;20092;-82
2021/09/07 14:06:04;;;;;;;18.40;6.35;;;;;;;;;;5053664;28;20468;-82
2021/09/07 14:08:32;;;;;;;14.77;6.45;;;;;;;;;;5053334;28;20090;-82
2021/09/07 14:11:00;;;;;;;12.80;5.97;;;;;;;;;;5053090;28;20049;-83
2021/09/07 14:13:27;;;;;;;14.82;6.30;;;;;;;;;;5034433;28;20056;-81
2021/09/07 14:15:56;;;;;;;14.50;6.90;;;;;;;;;;5052574;28;20045;-83
2021/09/07 14:18:28;;;;;;;11.70;5.35;;;;;;;;;;5035738;28;20107;-83
2021/09/07 14:21:08;;;;;;;11.25;5.40;;;;;;;;;;5050807;28;20131;-84
2021/09/07 14:23:38;;;;;;;10.75;4.90;;;;;;;;;;5035175;28;20052;-83
2021/09/07 14:26:12;;;;;;;15.70;5.72;;;;;;;;;;5033637;28;20156;-82
2021/09/07 14:28:39;;;;;;;11.63;5.63;;;;;;;;;;5028018;28;20777;-82
2021/09/07 14:31:06;;;;;;;13.80;6.00;;;;;;;;;;5034243;28;20094;-83
2021/09/07 14:33:34;;;;;;;18.33;6.13;;;;;;;;;;5052572;28;20052;-84
2021/09/07 14:36:01;;;;;;;17.90;5.55;;;;;;;;;;5035214;28;20087;-83